sensor_id;sensor_type;location;lat;lon;timestamp;P1;durP1;ratioP1;P2;durP2;ratioP2
16669;SDS011;8448;52.034;5.158;2023-05-20T00:00:51;6.63;;;4.20;;
16669;SDS011;8448;52.034;5.158;2023-05-20T00:03:18;8.90;;;4.30;;
16669;SDS011;8448;52.034;5.158;2023-05-20T00:05:46;8.20;;;4.30;;
16669;SDS011;8448;52.034;5.158;2023-05-20T00:08:13;7.60;;;4.15;;
16669;SDS011;8448;52.034;5.158;2023-05-20T00:10:44;8.93;;;4.20;;
16669;SDS011;8448;52.034;5.158;2023-05-20T00:13:12;8.88;;;4.80;;
16669;SDS011;8448;52.034;5.158;2023-05-20T00:15:39;8.60;;;4.50;;
16669;SDS011;8448;52.034;5.158;2023-05-20T00:18:06;7.80;;;4.50;;
16669;SDS011;8448;52.034;5.158;2023-05-20T00:20:34;12.18;;;4.90;;
16669;SDS011;8448;52.034;5.158;2023-05-20T00:23:01;10.13;;;4.72;;
16669;SDS011;8448;52.034;5.158;2023-05-20T00:25:28;8.48;;;4.15;;
16669;SDS011;8448;52.034;5.158;2023-05-20T00:27:57;7.40;;;4.30;;
16669;SDS011;8448;52.034;5.158;2023-05-20T00:30:25;10.23;;;5.00;;
16669;SDS011;8448;52.034;5.158;2023-05-20T00:32:53;9.77;;;4.50;;
16669;SDS011;8448;52.034;5.158;2023-05-20T00:35:20;10.27;;;4.55;;
16669;SDS011;8448;52.034;5.158;2023-05-20T00:37:47;10.43;;;4.77;;
16669;SDS011;8448;52.034;5.158;2023-05-20T00:40:15;7.33;;;4.53;;
16669;SDS011;8448;52.034;5.158;2023-05-20T00:42:42;9.10;;;4.53;;
16669;SDS011;8448;52.034;5.158;2023-05-20T00:45:11;8.47;;;4.67;;
16669;SDS011;8448;52.034;5.158;2023-05-20T00:47:38;10.70;;;4.80;;
16669;SDS011;8448;52.034;5.158;2023-05-20T00:50:06;8.80;;;4.40;;
16669;SDS011;8448;52.034;5.158;2023-05-20T00:52:34;11.03;;;4.40;;
16669;SDS011;8448;52.034;5.158;2023-05-20T00:55:02;11.27;;;4.50;;
16669;SDS011;8448;52.034;5.158;2023-05-20T00:57:30;8.97;;;4.73;;
16669;SDS011;8448;52.034;5.158;2023-05-20T00:59:57;7.57;;;4.80;;
16669;SDS011;8448;52.034;5.158;2023-05-20T01:02:26;9.13;;;4.77;;
16669;SDS011;8448;52.034;5.158;2023-05-20T01:04:54;10.20;;;4.87;;
16669;SDS011;8448;52.034;5.158;2023-05-20T01:07:21;12.33;;;4.70;;
16669;SDS011;8448;52.034;5.158;2023-05-20T01:09:49;9.57;;;5.10;;
16669;SDS011;8448;52.034;5.158;2023-05-20T01:12:20;9.03;;;4.83;;
16669;SDS011;8448;52.034;5.158;2023-05-20T01:14:50;8.77;;;4.67;;
16669;SDS011;8448;52.034;5.158;2023-05-20T01:17:24;11.23;;;4.83;;
16669;SDS011;8448;52.034;5.158;2023-05-20T01:19:57;8.90;;;4.33;;
16669;SDS011;8448;52.034;5.158;2023-05-20T01:22:26;8.68;;;5.07;;
16669;SDS011;8448;52.034;5.158;2023-05-20T01:24:54;8.90;;;4.70;;
16669;SDS011;8448;52.034;5.158;2023-05-20T01:27:21;9.43;;;4.82;;
16669;SDS011;8448;52.034;5.158;2023-05-20T01:29:50;7.50;;;4.50;;
16669;SDS011;8448;52.034;5.158;2023-05-20T01:32:19;7.90;;;4.50;;
16669;SDS011;8448;52.034;5.158;2023-05-20T01:34:48;9.23;;;4.93;;
16669;SDS011;8448;52.034;5.158;2023-05-20T01:37:16;10.63;;;4.77;;
16669;SDS011;8448;52.034;5.158;2023-05-20T01:39:46;8.15;;;4.80;;
16669;SDS011;8448;52.034;5.158;2023-05-20T01:42:15;11.23;;;5.33;;
16669;SDS011;8448;52.034;5.158;2023-05-20T01:44:43;8.03;;;4.67;;
16669;SDS011;8448;52.034;5.158;2023-05-20T01:47:10;8.93;;;5.10;;
16669;SDS011;8448;52.034;5.158;2023-05-20T01:49:40;10.00;;;4.90;;
16669;SDS011;8448;52.034;5.158;2023-05-20T01:52:07;11.50;;;5.13;;
16669;SDS011;8448;52.034;5.158;2023-05-20T01:54:34;9.53;;;5.10;;
16669;SDS011;8448;52.034;5.158;2023-05-20T01:57:03;8.97;;;4.93;;
16669;SDS011;8448;52.034;5.158;2023-05-20T01:59:31;10.00;;;4.83;;
16669;SDS011;8448;52.034;5.158;2023-05-20T02:01:58;10.67;;;4.73;;
16669;SDS011;8448;52.034;5.158;2023-05-20T02:04:26;10.30;;;4.77;;
16669;SDS011;8448;52.034;5.158;2023-05-20T02:06:53;9.53;;;4.80;;
16669;SDS011;8448;52.034;5.158;2023-05-20T02:09:21;12.60;;;5.03;;
16669;SDS011;8448;52.034;5.158;2023-05-20T02:11:50;8.63;;;4.67;;
16669;SDS011;8448;52.034;5.158;2023-05-20T02:14:19;8.60;;;4.50;;
16669;SDS011;8448;52.034;5.158;2023-05-20T02:16:46;10.67;;;5.10;;
16669;SDS011;8448;52.034;5.158;2023-05-20T02:19:14;10.63;;;5.60;;
16669;SDS011;8448;52.034;5.158;2023-05-20T02:21:47;8.77;;;5.40;;
16669;SDS011;8448;52.034;5.158;2023-05-20T02:24:15;7.40;;;5.00;;
16669;SDS011;8448;52.034;5.158;2023-05-20T02:26:42;10.37;;;4.97;;
16669;SDS011;8448;52.034;5.158;2023-05-20T02:29:13;14.10;;;5.27;;
16669;SDS011;8448;52.034;5.158;2023-05-20T02:31:42;7.73;;;5.20;;
16669;SDS011;8448;52.034;5.158;2023-05-20T02:34:10;7.90;;;4.90;;
16669;SDS011;8448;52.034;5.158;2023-05-20T02:36:37;9.47;;;5.30;;
16669;SDS011;8448;52.034;5.158;2023-05-20T02:39:05;10.40;;;5.50;;
16669;SDS011;8448;52.034;5.158;2023-05-20T02:41:32;9.53;;;5.00;;
16669;SDS011;8448;52.034;5.158;2023-05-20T02:44:00;8.63;;;4.90;;
16669;SDS011;8448;52.034;5.158;2023-05-20T02:46:27;8.57;;;5.37;;
16669;SDS011;8448;52.034;5.158;2023-05-20T02:48:56;12.13;;;5.40;;
16669;SDS011;8448;52.034;5.158;2023-05-20T02:51:24;8.97;;;5.10;;
16669;SDS011;8448;52.034;5.158;2023-05-20T02:53:51;10.40;;;5.20;;
16669;SDS011;8448;52.034;5.158;2023-05-20T02:56:19;9.93;;;5.17;;
16669;SDS011;8448;52.034;5.158;2023-05-20T02:58:46;8.50;;;4.93;;
16669;SDS011;8448;52.034;5.158;2023-05-20T03:01:13;10.20;;;5.37;;
16669;SDS011;8448;52.034;5.158;2023-05-20T03:03:41;11.60;;;5.37;;
16669;SDS011;8448;52.034;5.158;2023-05-20T03:06:10;9.20;;;5.50;;
16669;SDS011;8448;52.034;5.158;2023-05-20T03:08:37;10.80;;;5.70;;
16669;SDS011;8448;52.034;5.158;2023-05-20T03:11:06;10.50;;;5.30;;
16669;SDS011;8448;52.034;5.158;2023-05-20T03:13:34;13.00;;;5.60;;
16669;SDS011;8448;52.034;5.158;2023-05-20T03:16:01;8.63;;;5.20;;
16669;SDS011;8448;52.034;5.158;2023-05-20T03:18:29;9.97;;;5.03;;
16669;SDS011;8448;52.034;5.158;2023-05-20T03:20:56;11.97;;;5.40;;
16669;SDS011;8448;52.034;5.158;2023-05-20T03:23:25;11.03;;;5.97;;
16669;SDS011;8448;52.034;5.158;2023-05-20T03:25:52;12.20;;;5.87;;
16669;SDS011;8448;52.034;5.158;2023-05-20T03:28:19;10.70;;;5.77;;
16669;SDS011;8448;52.034;5.158;2023-05-20T03:30:48;10.47;;;5.97;;
16669;SDS011;8448;52.034;5.158;2023-05-20T03:33:15;10.23;;;5.60;;
16669;SDS011;8448;52.034;5.158;2023-05-20T03:35:43;9.83;;;5.77;;
16669;SDS011;8448;52.034;5.158;2023-05-20T03:38:13;10.47;;;5.27;;
16669;SDS011;8448;52.034;5.158;2023-05-20T03:40:41;13.23;;;6.10;;
16669;SDS011;8448;52.034;5.158;2023-05-20T03:43:09;10.27;;;5.70;;
16669;SDS011;8448;52.034;5.158;2023-05-20T03:45:36;9.97;;;5.90;;
16669;SDS011;8448;52.034;5.158;2023-05-20T03:48:05;8.63;;;5.50;;
16669;SDS011;8448;52.034;5.158;2023-05-20T03:50:34;9.03;;;5.40;;
16669;SDS011;8448;52.034;5.158;2023-05-20T03:53:01;7.53;;;5.47;;
16669;SDS011;8448;52.034;5.158;2023-05-20T03:55:35;11.40;;;5.30;;
16669;SDS011;8448;52.034;5.158;2023-05-20T03:58:05;10.93;;;6.10;;
16669;SDS011;8448;52.034;5.158;2023-05-20T04:00:32;8.83;;;5.70;;
16669;SDS011;8448;52.034;5.158;2023-05-20T04:03:00;8.47;;;5.33;;
16669;SDS011;8448;52.034;5.158;2023-05-20T04:05:27;9.73;;;5.77;;
16669;SDS011;8448;52.034;5.158;2023-05-20T04:07:55;8.67;;;5.87;;
16669;SDS011;8448;52.034;5.158;2023-05-20T04:10:23;9.53;;;5.70;;
16669;SDS011;8448;52.034;5.158;2023-05-20T04:12:51;9.03;;;5.60;;
16669;SDS011;8448;52.034;5.158;2023-05-20T04:15:21;10.30;;;5.43;;
16669;SDS011;8448;52.034;5.158;2023-05-20T04:17:54;9.60;;;5.73;;
16669;SDS011;8448;52.034;5.158;2023-05-20T04:20:21;11.87;;;5.70;;
16669;SDS011;8448;52.034;5.158;2023-05-20T04:22:51;7.77;;;5.10;;
16669;SDS011;8448;52.034;5.158;2023-05-20T04:25:19;7.63;;;5.77;;
16669;SDS011;8448;52.034;5.158;2023-05-20T04:27:48;10.77;;;6.03;;
16669;SDS011;8448;52.034;5.158;2023-05-20T04:30:18;10.97;;;5.30;;
16669;SDS011;8448;52.034;5.158;2023-05-20T04:32:48;10.00;;;6.23;;
16669;SDS011;8448;52.034;5.158;2023-05-20T04:35:16;9.30;;;5.27;;
16669;SDS011;8448;52.034;5.158;2023-05-20T04:37:45;9.97;;;5.87;;
16669;SDS011;8448;52.034;5.158;2023-05-20T04:40:13;8.67;;;5.90;;
16669;SDS011;8448;52.034;5.158;2023-05-20T04:42:41;10.57;;;5.83;;
16669;SDS011;8448;52.034;5.158;2023-05-20T04:45:10;7.70;;;5.37;;
16669;SDS011;8448;52.034;5.158;2023-05-20T04:47:39;12.20;;;5.53;;
16669;SDS011;8448;52.034;5.158;2023-05-20T04:50:08;9.27;;;5.40;;
16669;SDS011;8448;52.034;5.158;2023-05-20T04:52:39;8.73;;;5.40;;
16669;SDS011;8448;52.034;5.158;2023-05-20T04:55:08;10.77;;;5.30;;
16669;SDS011;8448;52.034;5.158;2023-05-20T04:57:35;9.10;;;5.73;;
16669;SDS011;8448;52.034;5.158;2023-05-20T05:00:06;9.10;;;4.70;;
16669;SDS011;8448;52.034;5.158;2023-05-20T05:02:34;6.37;;;5.07;;
16669;SDS011;8448;52.034;5.158;2023-05-20T05:05:03;7.57;;;5.17;;
16669;SDS011;8448;52.034;5.158;2023-05-20T05:07:31;9.77;;;5.40;;
16669;SDS011;8448;52.034;5.158;2023-05-20T05:09:59;9.20;;;5.53;;
16669;SDS011;8448;52.034;5.158;2023-05-20T05:12:28;8.70;;;5.40;;
16669;SDS011;8448;52.034;5.158;2023-05-20T05:14:56;7.10;;;5.10;;
16669;SDS011;8448;52.034;5.158;2023-05-20T05:17:24;11.97;;;5.40;;
16669;SDS011;8448;52.034;5.158;2023-05-20T05:19:52;10.97;;;5.50;;
16669;SDS011;8448;52.034;5.158;2023-05-20T05:22:21;8.80;;;4.90;;
16669;SDS011;8448;52.034;5.158;2023-05-20T05:24:49;11.20;;;5.00;;
16669;SDS011;8448;52.034;5.158;2023-05-20T05:27:17;9.83;;;5.20;;
16669;SDS011;8448;52.034;5.158;2023-05-20T05:29:44;7.20;;;4.80;;
16669;SDS011;8448;52.034;5.158;2023-05-20T05:32:12;9.63;;;4.57;;
16669;SDS011;8448;52.034;5.158;2023-05-20T05:34:39;7.00;;;4.70;;
16669;SDS011;8448;52.034;5.158;2023-05-20T05:37:06;7.93;;;4.70;;
16669;SDS011;8448;52.034;5.158;2023-05-20T05:39:35;7.27;;;4.53;;
16669;SDS011;8448;52.034;5.158;2023-05-20T05:42:03;9.30;;;4.80;;
16669;SDS011;8448;52.034;5.158;2023-05-20T05:44:31;8.30;;;4.73;;
16669;SDS011;8448;52.034;5.158;2023-05-20T05:46:59;8.00;;;4.70;;
16669;SDS011;8448;52.034;5.158;2023-05-20T05:49:26;8.70;;;4.50;;
16669;SDS011;8448;52.034;5.158;2023-05-20T05:51:54;8.37;;;4.63;;
16669;SDS011;8448;52.034;5.158;2023-05-20T05:54:22;7.43;;;4.33;;
16669;SDS011;8448;52.034;5.158;2023-05-20T05:56:52;7.27;;;4.63;;
16669;SDS011;8448;52.034;5.158;2023-05-20T05:59:20;8.03;;;4.47;;
16669;SDS011;8448;52.034;5.158;2023-05-20T06:01:48;9.00;;;5.00;;
16669;SDS011;8448;52.034;5.158;2023-05-20T06:04:15;8.03;;;4.53;;
16669;SDS011;8448;52.034;5.158;2023-05-20T06:06:43;6.90;;;4.70;;
16669;SDS011;8448;52.034;5.158;2023-05-20T06:09:10;6.07;;;4.60;;
16669;SDS011;8448;52.034;5.158;2023-05-20T06:11:37;7.60;;;4.17;;
16669;SDS011;8448;52.034;5.158;2023-05-20T06:14:07;7.05;;;4.40;;
16669;SDS011;8448;52.034;5.158;2023-05-20T06:16:35;8.10;;;4.65;;
16669;SDS011;8448;52.034;5.158;2023-05-20T06:19:02;6.05;;;4.28;;
16669;SDS011;8448;52.034;5.158;2023-05-20T06:21:30;7.82;;;4.30;;
16669;SDS011;8448;52.034;5.158;2023-05-20T06:23:57;8.67;;;4.63;;
16669;SDS011;8448;52.034;5.158;2023-05-20T06:26:25;9.25;;;4.38;;
16669;SDS011;8448;52.034;5.158;2023-05-20T06:28:52;8.55;;;4.32;;
16669;SDS011;8448;52.034;5.158;2023-05-20T06:31:22;7.10;;;4.38;;
16669;SDS011;8448;52.034;5.158;2023-05-20T06:33:50;10.18;;;4.72;;
16669;SDS011;8448;52.034;5.158;2023-05-20T06:36:17;6.80;;;4.00;;
16669;SDS011;8448;52.034;5.158;2023-05-20T06:38:45;6.47;;;4.30;;
16669;SDS011;8448;52.034;5.158;2023-05-20T06:41:14;6.45;;;4.20;;
16669;SDS011;8448;52.034;5.158;2023-05-20T06:43:41;7.07;;;4.20;;
16669;SDS011;8448;52.034;5.158;2023-05-20T06:46:49;6.75;;;4.13;;
16669;SDS011;8448;52.034;5.158;2023-05-20T06:49:16;8.07;;;4.32;;
16669;SDS011;8448;52.034;5.158;2023-05-20T06:51:43;6.97;;;4.63;;
16669;SDS011;8448;52.034;5.158;2023-05-20T06:54:11;7.10;;;4.35;;
16669;SDS011;8448;52.034;5.158;2023-05-20T06:56:38;6.88;;;4.30;;
16669;SDS011;8448;52.034;5.158;2023-05-20T06:59:05;7.88;;;4.45;;
16669;SDS011;8448;52.034;5.158;2023-05-20T07:01:34;6.72;;;4.30;;
16669;SDS011;8448;52.034;5.158;2023-05-20T07:04:03;5.35;;;3.85;;
16669;SDS011;8448;52.034;5.158;2023-05-20T07:06:31;7.25;;;4.15;;
16669;SDS011;8448;52.034;5.158;2023-05-20T07:08:59;6.32;;;4.32;;
16669;SDS011;8448;52.034;5.158;2023-05-20T07:11:26;7.85;;;4.35;;
16669;SDS011;8448;52.034;5.158;2023-05-20T07:13:54;7.35;;;4.05;;
16669;SDS011;8448;52.034;5.158;2023-05-20T07:16:23;6.57;;;4.20;;
16669;SDS011;8448;52.034;5.158;2023-05-20T07:18:53;5.95;;;3.80;;
16669;SDS011;8448;52.034;5.158;2023-05-20T07:21:21;5.05;;;3.75;;
16669;SDS011;8448;52.034;5.158;2023-05-20T07:24:09;9.05;;;4.55;;
16669;SDS011;8448;52.034;5.158;2023-05-20T07:26:36;6.65;;;3.58;;
16669;SDS011;8448;52.034;5.158;2023-05-20T07:29:04;6.65;;;3.78;;
16669;SDS011;8448;52.034;5.158;2023-05-20T07:31:32;5.28;;;3.80;;
16669;SDS011;8448;52.034;5.158;2023-05-20T07:33:59;7.43;;;3.75;;
16669;SDS011;8448;52.034;5.158;2023-05-20T07:36:28;5.85;;;3.80;;
16669;SDS011;8448;52.034;5.158;2023-05-20T07:38:59;5.70;;;3.72;;
16669;SDS011;8448;52.034;5.158;2023-05-20T07:41:27;5.07;;;3.50;;
16669;SDS011;8448;52.034;5.158;2023-05-20T07:43:55;9.93;;;3.60;;
16669;SDS011;8448;52.034;5.158;2023-05-20T07:46:22;3.95;;;2.97;;
16669;SDS011;8448;52.034;5.158;2023-05-20T07:48:49;4.57;;;2.80;;
16669;SDS011;8448;52.034;5.158;2023-05-20T07:51:17;5.03;;;2.95;;
16669;SDS011;8448;52.034;5.158;2023-05-20T07:53:46;5.07;;;2.85;;
16669;SDS011;8448;52.034;5.158;2023-05-20T07:56:14;5.00;;;2.55;;
16669;SDS011;8448;52.034;5.158;2023-05-20T07:58:42;4.28;;;2.63;;
16669;SDS011;8448;52.034;5.158;2023-05-20T08:01:09;4.30;;;2.70;;
16669;SDS011;8448;52.034;5.158;2023-05-20T08:03:36;3.85;;;2.92;;
16669;SDS011;8448;52.034;5.158;2023-05-20T08:06:11;4.35;;;2.70;;
16669;SDS011;8448;52.034;5.158;2023-05-20T08:08:40;4.32;;;2.58;;
16669;SDS011;8448;52.034;5.158;2023-05-20T08:11:15;3.58;;;2.65;;
16669;SDS011;8448;52.034;5.158;2023-05-20T08:13:42;3.60;;;2.63;;
16669;SDS011;8448;52.034;5.158;2023-05-20T08:16:10;4.50;;;2.40;;
16669;SDS011;8448;52.034;5.158;2023-05-20T08:18:37;3.92;;;2.22;;
16669;SDS011;8448;52.034;5.158;2023-05-20T08:21:05;5.38;;;2.45;;
16669;SDS011;8448;52.034;5.158;2023-05-20T08:23:33;3.03;;;2.28;;
16669;SDS011;8448;52.034;5.158;2023-05-20T08:26:00;3.00;;;2.60;;
16669;SDS011;8448;52.034;5.158;2023-05-20T08:28:31;8.32;;;2.50;;
16669;SDS011;8448;52.034;5.158;2023-05-20T08:31:00;3.47;;;2.08;;
16669;SDS011;8448;52.034;5.158;2023-05-20T08:33:29;3.25;;;2.45;;
16669;SDS011;8448;52.034;5.158;2023-05-20T08:35:56;9.30;;;2.85;;
16669;SDS011;8448;52.034;5.158;2023-05-20T08:38:23;3.40;;;2.45;;
16669;SDS011;8448;52.034;5.158;2023-05-20T08:40:51;4.28;;;2.38;;
16669;SDS011;8448;52.034;5.158;2023-05-20T08:43:19;4.55;;;2.63;;
16669;SDS011;8448;52.034;5.158;2023-05-20T08:45:48;3.63;;;1.90;;
16669;SDS011;8448;52.034;5.158;2023-05-20T08:48:18;4.35;;;2.17;;
16669;SDS011;8448;52.034;5.158;2023-05-20T08:50:45;3.58;;;1.88;;
16669;SDS011;8448;52.034;5.158;2023-05-20T08:53:16;3.85;;;1.90;;
16669;SDS011;8448;52.034;5.158;2023-05-20T08:55:45;3.33;;;2.13;;
16669;SDS011;8448;52.034;5.158;2023-05-20T08:58:14;4.53;;;2.28;;
16669;SDS011;8448;52.034;5.158;2023-05-20T09:00:43;3.67;;;1.83;;
16669;SDS011;8448;52.034;5.158;2023-05-20T09:03:12;4.82;;;1.92;;
16669;SDS011;8448;52.034;5.158;2023-05-20T09:05:39;3.08;;;2.10;;
16669;SDS011;8448;52.034;5.158;2023-05-20T09:08:06;5.03;;;2.20;;
16669;SDS011;8448;52.034;5.158;2023-05-20T09:10:35;4.07;;;2.10;;
16669;SDS011;8448;52.034;5.158;2023-05-20T09:13:03;2.20;;;1.83;;
16669;SDS011;8448;52.034;5.158;2023-05-20T09:15:31;3.78;;;2.20;;
16669;SDS011;8448;52.034;5.158;2023-05-20T09:18:00;3.97;;;2.00;;
16669;SDS011;8448;52.034;5.158;2023-05-20T09:20:29;3.53;;;1.90;;
16669;SDS011;8448;52.034;5.158;2023-05-20T09:22:59;3.67;;;1.88;;
16669;SDS011;8448;52.034;5.158;2023-05-20T09:25:27;5.78;;;1.88;;
16669;SDS011;8448;52.034;5.158;2023-05-20T09:27:54;4.30;;;1.90;;
16669;SDS011;8448;52.034;5.158;2023-05-20T09:30:22;4.47;;;1.70;;
16669;SDS011;8448;52.034;5.158;2023-05-20T09:32:52;4.25;;;2.10;;
16669;SDS011;8448;52.034;5.158;2023-05-20T09:35:20;3.95;;;1.80;;
16669;SDS011;8448;52.034;5.158;2023-05-20T09:37:51;4.03;;;1.80;;
16669;SDS011;8448;52.034;5.158;2023-05-20T09:40:20;3.90;;;1.90;;
16669;SDS011;8448;52.034;5.158;2023-05-20T09:42:51;3.95;;;1.58;;
16669;SDS011;8448;52.034;5.158;2023-05-20T09:45:20;9.10;;;2.03;;
16669;SDS011;8448;52.034;5.158;2023-05-20T09:47:49;3.22;;;1.98;;
16669;SDS011;8448;52.034;5.158;2023-05-20T09:50:17;3.88;;;1.80;;
16669;SDS011;8448;52.034;5.158;2023-05-20T09:52:46;4.75;;;2.00;;
16669;SDS011;8448;52.034;5.158;2023-05-20T09:55:16;2.50;;;1.83;;
16669;SDS011;8448;52.034;5.158;2023-05-20T09:57:44;4.18;;;1.83;;
16669;SDS011;8448;52.034;5.158;2023-05-20T10:00:12;3.80;;;1.95;;
16669;SDS011;8448;52.034;5.158;2023-05-20T10:02:41;2.72;;;1.65;;
16669;SDS011;8448;52.034;5.158;2023-05-20T10:05:11;4.18;;;1.90;;
16669;SDS011;8448;52.034;5.158;2023-05-20T10:07:48;3.80;;;2.05;;
16669;SDS011;8448;52.034;5.158;2023-05-20T10:10:39;5.78;;;2.00;;
16669;SDS011;8448;52.034;5.158;2023-05-20T10:13:17;4.72;;;2.40;;
16669;SDS011;8448;52.034;5.158;2023-05-20T10:15:53;5.35;;;2.20;;
16669;SDS011;8448;52.034;5.158;2023-05-20T10:18:28;4.07;;;2.10;;
16669;SDS011;8448;52.034;5.158;2023-05-20T10:21:14;3.45;;;1.92;;
16669;SDS011;8448;52.034;5.158;2023-05-20T10:23:42;3.28;;;1.98;;
16669;SDS011;8448;52.034;5.158;2023-05-20T10:26:10;5.47;;;2.50;;
16669;SDS011;8448;52.034;5.158;2023-05-20T10:28:39;2.92;;;2.00;;
16669;SDS011;8448;52.034;5.158;2023-05-20T10:31:16;7.35;;;2.28;;
16669;SDS011;8448;52.034;5.158;2023-05-20T10:33:45;2.95;;;2.28;;
16669;SDS011;8448;52.034;5.158;2023-05-20T10:36:22;2.78;;;2.20;;
16669;SDS011;8448;52.034;5.158;2023-05-20T10:38:52;4.25;;;1.95;;
16669;SDS011;8448;52.034;5.158;2023-05-20T10:41:22;3.78;;;2.40;;
16669;SDS011;8448;52.034;5.158;2023-05-20T10:43:59;3.38;;;2.13;;
16669;SDS011;8448;52.034;5.158;2023-05-20T10:46:28;3.83;;;2.05;;
16669;SDS011;8448;52.034;5.158;2023-05-20T10:48:55;2.78;;;1.90;;
16669;SDS011;8448;52.034;5.158;2023-05-20T10:51:23;5.82;;;2.30;;
16669;SDS011;8448;52.034;5.158;2023-05-20T10:53:53;4.15;;;1.95;;
16669;SDS011;8448;52.034;5.158;2023-05-20T10:56:23;3.20;;;2.13;;
16669;SDS011;8448;52.034;5.158;2023-05-20T10:58:51;4.20;;;2.20;;
16669;SDS011;8448;52.034;5.158;2023-05-20T11:01:22;3.22;;;1.90;;
16669;SDS011;8448;52.034;5.158;2023-05-20T11:03:51;4.10;;;2.13;;
16669;SDS011;8448;52.034;5.158;2023-05-20T11:06:24;2.53;;;1.77;;
16669;SDS011;8448;52.034;5.158;2023-05-20T11:08:53;3.90;;;2.08;;
16669;SDS011;8448;52.034;5.158;2023-05-20T11:11:21;4.85;;;1.92;;
16669;SDS011;8448;52.034;5.158;2023-05-20T11:13:49;3.45;;;1.92;;
16669;SDS011;8448;52.034;5.158;2023-05-20T11:16:18;5.05;;;2.00;;
16669;SDS011;8448;52.034;5.158;2023-05-20T11:18:47;5.85;;;1.90;;
16669;SDS011;8448;52.034;5.158;2023-05-20T11:21:15;5.25;;;2.28;;
16669;SDS011;8448;52.034;5.158;2023-05-20T11:23:43;3.33;;;2.00;;
16669;SDS011;8448;52.034;5.158;2023-05-20T11:26:10;3.55;;;2.40;;
16669;SDS011;8448;52.034;5.158;2023-05-20T11:28:39;4.55;;;2.50;;
16669;SDS011;8448;52.034;5.158;2023-05-20T11:31:06;3.72;;;2.30;;
16669;SDS011;8448;52.034;5.158;2023-05-20T11:33:34;3.95;;;2.30;;
16669;SDS011;8448;52.034;5.158;2023-05-20T11:36:06;6.95;;;2.55;;
16669;SDS011;8448;52.034;5.158;2023-05-20T11:38:37;4.30;;;2.05;;
16669;SDS011;8448;52.034;5.158;2023-05-20T11:41:06;4.47;;;2.13;;
16669;SDS011;8448;52.034;5.158;2023-05-20T11:43:33;5.05;;;2.22;;
16669;SDS011;8448;52.034;5.158;2023-05-20T11:46:03;3.35;;;2.20;;
16669;SDS011;8448;52.034;5.158;2023-05-20T11:48:32;4.75;;;1.90;;
16669;SDS011;8448;52.034;5.158;2023-05-20T11:50:59;3.00;;;2.33;;
16669;SDS011;8448;52.034;5.158;2023-05-20T11:53:27;5.68;;;2.40;;
16669;SDS011;8448;52.034;5.158;2023-05-20T11:55:55;6.60;;;2.70;;
16669;SDS011;8448;52.034;5.158;2023-05-20T11:58:25;3.97;;;2.30;;
16669;SDS011;8448;52.034;5.158;2023-05-20T12:00:54;5.57;;;2.38;;
16669;SDS011;8448;52.034;5.158;2023-05-20T12:03:23;3.00;;;2.08;;
16669;SDS011;8448;52.034;5.158;2023-05-20T12:05:51;3.72;;;2.42;;
16669;SDS011;8448;52.034;5.158;2023-05-20T12:08:18;4.57;;;2.35;;
16669;SDS011;8448;52.034;5.158;2023-05-20T12:10:46;3.63;;;2.08;;
16669;SDS011;8448;52.034;5.158;2023-05-20T12:13:14;5.05;;;2.47;;
16669;SDS011;8448;52.034;5.158;2023-05-20T12:15:41;4.40;;;2.10;;
16669;SDS011;8448;52.034;5.158;2023-05-20T12:18:09;2.30;;;2.10;;
16669;SDS011;8448;52.034;5.158;2023-05-20T12:20:38;3.78;;;2.00;;
16669;SDS011;8448;52.034;5.158;2023-05-20T12:23:05;5.80;;;2.05;;
16669;SDS011;8448;52.034;5.158;2023-05-20T12:25:33;4.97;;;2.47;;
16669;SDS011;8448;52.034;5.158;2023-05-20T12:28:00;4.90;;;2.30;;
16669;SDS011;8448;52.034;5.158;2023-05-20T12:30:28;2.55;;;2.00;;
16669;SDS011;8448;52.034;5.158;2023-05-20T12:32:55;5.00;;;2.47;;
16669;SDS011;8448;52.034;5.158;2023-05-20T12:35:23;3.60;;;2.20;;
16669;SDS011;8448;52.034;5.158;2023-05-20T12:37:52;3.17;;;1.90;;
16669;SDS011;8448;52.034;5.158;2023-05-20T12:40:19;4.15;;;2.33;;
16669;SDS011;8448;52.034;5.158;2023-05-20T12:42:47;4.78;;;2.00;;
16669;SDS011;8448;52.034;5.158;2023-05-20T12:45:15;4.45;;;2.20;;
16669;SDS011;8448;52.034;5.158;2023-05-20T12:47:42;4.45;;;2.10;;
16669;SDS011;8448;52.034;5.158;2023-05-20T12:50:10;7.38;;;2.17;;
16669;SDS011;8448;52.034;5.158;2023-05-20T12:52:37;4.20;;;2.20;;
16669;SDS011;8448;52.034;5.158;2023-05-20T12:55:07;4.22;;;2.10;;
16669;SDS011;8448;52.034;5.158;2023-05-20T12:57:38;7.60;;;2.03;;
16669;SDS011;8448;52.034;5.158;2023-05-20T13:00:06;3.25;;;1.83;;
16669;SDS011;8448;52.034;5.158;2023-05-20T13:02:34;3.90;;;2.40;;
16669;SDS011;8448;52.034;5.158;2023-05-20T13:05:01;2.78;;;2.30;;
16669;SDS011;8448;52.034;5.158;2023-05-20T13:07:29;3.38;;;1.98;;
16669;SDS011;8448;52.034;5.158;2023-05-20T13:09:56;5.57;;;2.03;;
16669;SDS011;8448;52.034;5.158;2023-05-20T13:12:25;4.20;;;2.00;;
16669;SDS011;8448;52.034;5.158;2023-05-20T13:14:52;2.72;;;1.95;;
16669;SDS011;8448;52.034;5.158;2023-05-20T13:17:20;5.00;;;1.92;;
16669;SDS011;8448;52.034;5.158;2023-05-20T13:19:48;2.20;;;1.70;;
16669;SDS011;8448;52.034;5.158;2023-05-20T13:22:15;3.17;;;1.90;;
16669;SDS011;8448;52.034;5.158;2023-05-20T13:24:43;2.95;;;1.70;;
16669;SDS011;8448;52.034;5.158;2023-05-20T13:27:10;3.58;;;2.30;;
16669;SDS011;8448;52.034;5.158;2023-05-20T13:29:39;2.33;;;1.95;;
16669;SDS011;8448;52.034;5.158;2023-05-20T13:32:07;2.72;;;2.10;;
16669;SDS011;8448;52.034;5.158;2023-05-20T13:34:34;2.80;;;2.28;;
16669;SDS011;8448;52.034;5.158;2023-05-20T13:37:02;4.60;;;2.33;;
16669;SDS011;8448;52.034;5.158;2023-05-20T13:39:30;5.25;;;2.20;;
16669;SDS011;8448;52.034;5.158;2023-05-20T13:41:58;5.30;;;2.60;;
16669;SDS011;8448;52.034;5.158;2023-05-20T13:44:25;5.60;;;4.38;;
16669;SDS011;8448;52.034;5.158;2023-05-20T13:46:54;5.78;;;3.60;;
16669;SDS011;8448;52.034;5.158;2023-05-20T13:49:21;5.40;;;2.40;;
16669;SDS011;8448;52.034;5.158;2023-05-20T13:51:49;5.80;;;2.00;;
16669;SDS011;8448;52.034;5.158;2023-05-20T13:54:16;3.20;;;2.15;;
16669;SDS011;8448;52.034;5.158;2023-05-20T13:56:45;4.57;;;2.13;;
16669;SDS011;8448;52.034;5.158;2023-05-20T13:59:12;4.00;;;2.33;;
16669;SDS011;8448;52.034;5.158;2023-05-20T14:01:39;2.35;;;2.05;;
16669;SDS011;8448;52.034;5.158;2023-05-20T14:04:10;2.97;;;2.17;;
16669;SDS011;8448;52.034;5.158;2023-05-20T14:06:37;2.65;;;2.20;;
16669;SDS011;8448;52.034;5.158;2023-05-20T14:09:05;4.18;;;2.22;;
16669;SDS011;8448;52.034;5.158;2023-05-20T14:11:34;3.88;;;1.90;;
16669;SDS011;8448;52.034;5.158;2023-05-20T14:14:02;2.97;;;2.08;;
16669;SDS011;8448;52.034;5.158;2023-05-20T14:16:29;3.25;;;2.25;;
16669;SDS011;8448;52.034;5.158;2023-05-20T14:18:57;3.75;;;2.20;;
16669;SDS011;8448;52.034;5.158;2023-05-20T14:21:25;4.10;;;1.90;;
16669;SDS011;8448;52.034;5.158;2023-05-20T14:23:53;2.45;;;2.20;;
16669;SDS011;8448;52.034;5.158;2023-05-20T14:26:20;4.57;;;2.03;;
16669;SDS011;8448;52.034;5.158;2023-05-20T14:28:47;3.63;;;1.90;;
16669;SDS011;8448;52.034;5.158;2023-05-20T14:31:16;4.63;;;1.80;;
16669;SDS011;8448;52.034;5.158;2023-05-20T14:33:43;4.63;;;1.90;;
16669;SDS011;8448;52.034;5.158;2023-05-20T14:36:10;5.88;;;1.83;;
16669;SDS011;8448;52.034;5.158;2023-05-20T14:38:39;3.83;;;2.20;;
16669;SDS011;8448;52.034;5.158;2023-05-20T14:41:06;2.88;;;2.30;;
16669;SDS011;8448;52.034;5.158;2023-05-20T14:43:34;5.75;;;2.20;;
16669;SDS011;8448;52.034;5.158;2023-05-20T14:46:01;3.40;;;2.50;;
16669;SDS011;8448;52.034;5.158;2023-05-20T14:48:29;7.10;;;2.63;;
16669;SDS011;8448;52.034;5.158;2023-05-20T14:50:56;6.18;;;2.22;;
16669;SDS011;8448;52.034;5.158;2023-05-20T14:53:24;2.70;;;2.30;;
16669;SDS011;8448;52.034;5.158;2023-05-20T14:55:52;4.68;;;2.33;;
16669;SDS011;8448;52.034;5.158;2023-05-20T14:58:20;3.70;;;2.45;;
16669;SDS011;8448;52.034;5.158;2023-05-20T15:00:47;3.03;;;2.55;;
16669;SDS011;8448;52.034;5.158;2023-05-20T15:03:14;4.53;;;2.42;;
16669;SDS011;8448;52.034;5.158;2023-05-20T15:05:42;4.40;;;2.60;;
16669;SDS011;8448;52.034;5.158;2023-05-20T15:08:09;6.40;;;2.40;;